sensor_id;sensor_type;location;lat;lon;timestamp;temperature;humidity
11320;DHT22;5715;48.234;14.320;2024-01-10T00:01:38;-3.80;99.90
11320;DHT22;5715;48.234;14.320;2024-01-10T00:04:28;-3.70;99.90
11320;DHT22;5715;48.234;14.320;2024-01-10T00:07:16;-3.70;99.90
11320;DHT22;5715;48.234;14.320;2024-01-10T00:10:04;-3.70;99.90
11320;DHT22;5715;48.234;14.320;2024-01-10T00:12:52;-3.70;99.90
11320;DHT22;5715;48.234;14.320;2024-01-10T00:15:40;-3.70;99.90
11320;DHT22;5715;48.234;14.320;2024-01-10T00:18:28;-3.70;99.90
11320;DHT22;5715;48.234;14.320;2024-01-10T00:21:15;-3.70;99.90
11320;DHT22;5715;48.234;14.320;2024-01-10T00:24:03;-3.60;99.90
11320;DHT22;5715;48.234;14.320;2024-01-10T00:26:53;-3.60;99.90
11320;DHT22;5715;48.234;14.320;2024-01-10T00:29:40;-3.60;99.90
11320;DHT22;5715;48.234;14.320;2024-01-10T00:32:29;-3.60;99.90
11320;DHT22;5715;48.234;14.320;2024-01-10T00:35:16;-3.60;99.90
11320;DHT22;5715;48.234;14.320;2024-01-10T00:38:05;-3.60;99.90
11320;DHT22;5715;48.234;14.320;2024-01-10T00:40:52;-3.60;99.90
11320;DHT22;5715;48.234;14.320;2024-01-10T00:43:40;-3.70;99.90
11320;DHT22;5715;48.234;14.320;2024-01-10T00:46:28;-3.60;99.90
11320;DHT22;5715;48.234;14.320;2024-01-10T00:49:16;-3.60;99.90
11320;DHT22;5715;48.234;14.320;2024-01-10T00:52:04;-3.70;99.90
11320;DHT22;5715;48.234;14.320;2024-01-10T00:54:51;-3.60;99.90
11320;DHT22;5715;48.234;14.320;2024-01-10T00:57:39;-3.70;99.90
11320;DHT22;5715;48.234;14.320;2024-01-10T01:00:27;-3.70;99.90
11320;DHT22;5715;48.234;14.320;2024-01-10T01:03:14;-3.70;99.90
11320;DHT22;5715;48.234;14.320;2024-01-10T01:06:02;-3.70;99.90
11320;DHT22;5715;48.234;14.320;2024-01-10T01:08:50;-3.60;99.90
11320;DHT22;5715;48.234;14.320;2024-01-10T01:11:37;-3.70;99.90
11320;DHT22;5715;48.234;14.320;2024-01-10T01:14:25;-3.70;99.90
11320;DHT22;5715;48.234;14.320;2024-01-10T01:17:13;-3.70;99.90
11320;DHT22;5715;48.234;14.320;2024-01-10T01:20:01;-3.70;99.90
11320;DHT22;5715;48.234;14.320;2024-01-10T01:22:52;-3.70;99.90
11320;DHT22;5715;48.234;14.320;2024-01-10T01:25:40;-3.70;99.90
11320;DHT22;5715;48.234;14.320;2024-01-10T01:28:28;-3.70;99.90
11320;DHT22;5715;48.234;14.320;2024-01-10T01:31:15;-3.70;99.90
11320;DHT22;5715;48.234;14.320;2024-01-10T01:34:03;-3.70;99.90
11320;DHT22;5715;48.234;14.320;2024-01-10T01:36:51;-3.70;99.90
11320;DHT22;5715;48.234;14.320;2024-01-10T01:39:38;-3.70;99.90
11320;DHT22;5715;48.234;14.320;2024-01-10T01:42:26;-3.70;99.90
11320;DHT22;5715;48.234;14.320;2024-01-10T01:45:14;-3.80;99.90
11320;DHT22;5715;48.234;14.320;2024-01-10T01:48:02;-3.80;99.90
11320;DHT22;5715;48.234;14.320;2024-01-10T01:50:52;-3.70;99.90
11320;DHT22;5715;48.234;14.320;2024-01-10T01:53:48;-3.80;99.90
11320;DHT22;5715;48.234;14.320;2024-01-10T01:56:37;-3.80;99.90
11320;DHT22;5715;48.234;14.320;2024-01-10T01:59:26;-3.80;99.90
11320;DHT22;5715;48.234;14.320;2024-01-10T02:02:16;-3.80;99.90
11320;DHT22;5715;48.234;14.320;2024-01-10T02:05:05;-3.80;99.90
11320;DHT22;5715;48.234;14.320;2024-01-10T02:07:53;-3.80;99.90
11320;DHT22;5715;48.234;14.320;2024-01-10T02:10:42;-3.80;99.90
11320;DHT22;5715;48.234;14.320;2024-01-10T02:13:31;-3.80;99.90
11320;DHT22;5715;48.234;14.320;2024-01-10T02:16:22;-3.80;99.90
11320;DHT22;5715;48.234;14.320;2024-01-10T02:19:20;-3.80;99.90
11320;DHT22;5715;48.234;14.320;2024-01-10T02:22:09;-3.80;99.90
11320;DHT22;5715;48.234;14.320;2024-01-10T02:24:58;-3.80;99.90
11320;DHT22;5715;48.234;14.320;2024-01-10T02:27:46;-3.80;99.90
11320;DHT22;5715;48.234;14.320;2024-01-10T02:30:33;-3.80;99.90
11320;DHT22;5715;48.234;14.320;2024-01-10T02:33:21;-3.80;99.90
11320;DHT22;5715;48.234;14.320;2024-01-10T02:36:09;-3.80;99.90
11320;DHT22;5715;48.234;14.320;2024-01-10T02:38:56;-3.80;99.90
11320;DHT22;5715;48.234;14.320;2024-01-10T02:41:44;-3.90;99.90
11320;DHT22;5715;48.234;14.320;2024-01-10T02:44:32;-3.80;99.90
11320;DHT22;5715;48.234;14.320;2024-01-10T02:47:20;-3.90;99.90
11320;DHT22;5715;48.234;14.320;2024-01-10T02:50:08;-3.90;99.90
11320;DHT22;5715;48.234;14.320;2024-01-10T02:52:56;-3.90;99.90
11320;DHT22;5715;48.234;14.320;2024-01-10T02:55:44;-3.90;99.90
11320;DHT22;5715;48.234;14.320;2024-01-10T02:58:33;-3.90;99.90
11320;DHT22;5715;48.234;14.320;2024-01-10T03:01:21;-3.90;99.90
11320;DHT22;5715;48.234;14.320;2024-01-10T03:04:09;-4.00;99.90
11320;DHT22;5715;48.234;14.320;2024-01-10T03:06:57;-4.00;99.90
11320;DHT22;5715;48.234;14.320;2024-01-10T03:09:45;-4.00;99.90
11320;DHT22;5715;48.234;14.320;2024-01-10T03:12:32;-4.00;99.90
11320;DHT22;5715;48.234;14.320;2024-01-10T03:15:24;-4.00;99.90
11320;DHT22;5715;48.234;14.320;2024-01-10T03:18:12;-4.00;99.90
11320;DHT22;5715;48.234;14.320;2024-01-10T03:21:00;-4.00;99.90
11320;DHT22;5715;48.234;14.320;2024-01-10T03:23:48;-4.00;99.90
11320;DHT22;5715;48.234;14.320;2024-01-10T03:26:36;-4.00;99.90
11320;DHT22;5715;48.234;14.320;2024-01-10T03:29:24;-4.00;99.90
11320;DHT22;5715;48.234;14.320;2024-01-10T03:32:11;-4.00;99.90
11320;DHT22;5715;48.234;14.320;2024-01-10T03:34:59;-4.00;99.90
11320;DHT22;5715;48.234;14.320;2024-01-10T03:37:47;-4.00;99.90
11320;DHT22;5715;48.234;14.320;2024-01-10T03:40:35;-4.00;99.90
11320;DHT22;5715;48.234;14.320;2024-01-10T03:43:23;-4.00;99.90
11320;DHT22;5715;48.234;14.320;2024-01-10T03:46:11;-4.00;99.90
11320;DHT22;5715;48.234;14.320;2024-01-10T03:48:59;-4.10;99.90
11320;DHT22;5715;48.234;14.320;2024-01-10T03:51:47;-4.00;99.90
11320;DHT22;5715;48.234;14.320;2024-01-10T03:54:35;-4.00;99.90
11320;DHT22;5715;48.234;14.320;2024-01-10T03:57:24;-4.00;99.90
11320;DHT22;5715;48.234;14.320;2024-01-10T04:00:12;-4.10;99.90
11320;DHT22;5715;48.234;14.320;2024-01-10T04:03:00;-4.10;99.90
11320;DHT22;5715;48.234;14.320;2024-01-10T04:05:48;-4.10;99.90
11320;DHT22;5715;48.234;14.320;2024-01-10T04:08:36;-4.10;99.90
11320;DHT22;5715;48.234;14.320;2024-01-10T04:11:23;-4.10;99.90
11320;DHT22;5715;48.234;14.320;2024-01-10T04:14:11;-4.10;99.90
11320;DHT22;5715;48.234;14.320;2024-01-10T04:16:59;-4.10;99.90
11320;DHT22;5715;48.234;14.320;2024-01-10T04:19:48;-4.10;99.90
11320;DHT22;5715;48.234;14.320;2024-01-10T04:22:36;-4.20;99.90
11320;DHT22;5715;48.234;14.320;2024-01-10T04:25:24;-4.20;99.90
11320;DHT22;5715;48.234;14.320;2024-01-10T04:28:11;-4.20;99.90
11320;DHT22;5715;48.234;14.320;2024-01-10T04:30:59;-4.20;99.90
11320;DHT22;5715;48.234;14.320;2024-01-10T04:33:47;-4.20;99.90
11320;DHT22;5715;48.234;14.320;2024-01-10T04:36:35;-4.20;99.90
11320;DHT22;5715;48.234;14.320;2024-01-10T04:39:22;-4.30;99.90
11320;DHT22;5715;48.234;14.320;2024-01-10T04:42:13;-4.50;99.90
11320;DHT22;5715;48.234;14.320;2024-01-10T04:45:01;-4.30;99.90
11320;DHT22;5715;48.234;14.320;2024-01-10T04:47:49;-4.30;99.90
11320;DHT22;5715;48.234;14.320;2024-01-10T04:50:36;-4.30;99.90
11320;DHT22;5715;48.234;14.320;2024-01-10T04:53:24;-4.30;99.90
11320;DHT22;5715;48.234;14.320;2024-01-10T04:56:12;-4.30;99.90
11320;DHT22;5715;48.234;14.320;2024-01-10T04:59:00;-4.30;99.90
11320;DHT22;5715;48.234;14.320;2024-01-10T05:01:48;-4.30;99.90
11320;DHT22;5715;48.234;14.320;2024-01-10T05:04:36;-4.30;99.90
11320;DHT22;5715;48.234;14.320;2024-01-10T05:07:23;-4.40;99.90
11320;DHT22;5715;48.234;14.320;2024-01-10T05:10:11;-4.40;99.90
11320;DHT22;5715;48.234;14.320;2024-01-10T05:12:59;-4.30;99.90
11320;DHT22;5715;48.234;14.320;2024-01-10T05:15:47;-4.40;99.90
11320;DHT22;5715;48.234;14.320;2024-01-10T05:18:34;-4.40;99.90
11320;DHT22;5715;48.234;14.320;2024-01-10T05:21:22;-4.40;99.90
11320;DHT22;5715;48.234;14.320;2024-01-10T05:24:10;-4.40;99.90
11320;DHT22;5715;48.234;14.320;2024-01-10T05:26:57;-4.40;99.90
11320;DHT22;5715;48.234;14.320;2024-01-10T05:29:45;-4.40;99.90
11320;DHT22;5715;48.234;14.320;2024-01-10T05:32:34;-4.40;99.90
11320;DHT22;5715;48.234;14.320;2024-01-10T05:35:22;-4.50;99.90
11320;DHT22;5715;48.234;14.320;2024-01-10T05:38:09;-4.50;99.90
11320;DHT22;5715;48.234;14.320;2024-01-10T05:40:57;-4.50;99.90
11320;DHT22;5715;48.234;14.320;2024-01-10T05:43:45;-4.50;99.90
11320;DHT22;5715;48.234;14.320;2024-01-10T05:46:33;-4.50;99.90
11320;DHT22;5715;48.234;14.320;2024-01-10T05:49:21;-4.50;99.90
11320;DHT22;5715;48.234;14.320;2024-01-10T05:52:09;-4.50;99.90
11320;DHT22;5715;48.234;14.320;2024-01-10T05:54:57;-4.50;99.90
11320;DHT22;5715;48.234;14.320;2024-01-10T05:57:44;-4.50;99.90
11320;DHT22;5715;48.234;14.320;2024-01-10T06:00:32;-4.60;99.90
11320;DHT22;5715;48.234;14.320;2024-01-10T06:03:20;-4.60;99.90
11320;DHT22;5715;48.234;14.320;2024-01-10T06:06:09;-4.60;99.90
11320;DHT22;5715;48.234;14.320;2024-01-10T06:08:56;-4.60;99.90
11320;DHT22;5715;48.234;14.320;2024-01-10T06:11:44;-4.70;99.90
11320;DHT22;5715;48.234;14.320;2024-01-10T06:14:31;-4.70;99.90
11320;DHT22;5715;48.234;14.320;2024-01-10T06:17:19;-4.70;99.90
11320;DHT22;5715;48.234;14.320;2024-01-10T06:20:07;-4.70;99.90
11320;DHT22;5715;48.234;14.320;2024-01-10T06:22:56;-4.70;99.90
11320;DHT22;5715;48.234;14.320;2024-01-10T06:25:44;-4.60;99.90
11320;DHT22;5715;48.234;14.320;2024-01-10T06:28:32;-4.70;99.90
11320;DHT22;5715;48.234;14.320;2024-01-10T06:31:19;-4.70;99.90
11320;DHT22;5715;48.234;14.320;2024-01-10T06:34:08;-4.70;99.90
11320;DHT22;5715;48.234;14.320;2024-01-10T06:36:56;-4.70;99.90
11320;DHT22;5715;48.234;14.320;2024-01-10T06:39:44;-4.80;99.90
11320;DHT22;5715;48.234;14.320;2024-01-10T06:42:31;-4.80;99.90
11320;DHT22;5715;48.234;14.320;2024-01-10T06:45:19;-4.80;99.90
11320;DHT22;5715;48.234;14.320;2024-01-10T06:48:07;-4.70;99.90
11320;DHT22;5715;48.234;14.320;2024-01-10T06:50:55;-4.70;99.90
11320;DHT22;5715;48.234;14.320;2024-01-10T06:53:43;-4.80;99.90
11320;DHT22;5715;48.234;14.320;2024-01-10T06:56:31;-4.80;99.90
11320;DHT22;5715;48.234;14.320;2024-01-10T06:59:20;-4.80;99.90
11320;DHT22;5715;48.234;14.320;2024-01-10T07:02:08;-4.80;99.90
11320;DHT22;5715;48.234;14.320;2024-01-10T07:04:55;-4.80;99.90
11320;DHT22;5715;48.234;14.320;2024-01-10T07:07:43;-4.80;99.90
11320;DHT22;5715;48.234;14.320;2024-01-10T07:10:31;-4.80;99.90
11320;DHT22;5715;48.234;14.320;2024-01-10T07:13:19;-4.90;99.90
11320;DHT22;5715;48.234;14.320;2024-01-10T07:16:07;-4.90;99.90
11320;DHT22;5715;48.234;14.320;2024-01-10T07:18:56;-4.90;99.90
11320;DHT22;5715;48.234;14.320;2024-01-10T07:21:43;-4.80;99.90
11320;DHT22;5715;48.234;14.320;2024-01-10T07:24:31;-4.70;99.90
11320;DHT22;5715;48.234;14.320;2024-01-10T07:27:19;-4.70;99.90
11320;DHT22;5715;48.234;14.320;2024-01-10T07:30:07;-4.80;99.90
11320;DHT22;5715;48.234;14.320;2024-01-10T07:33:01;-4.70;99.90
11320;DHT22;5715;48.234;14.320;2024-01-10T07:35:49;-4.60;99.90
11320;DHT22;5715;48.234;14.320;2024-01-10T07:38:36;-4.60;99.90
11320;DHT22;5715;48.234;14.320;2024-01-10T07:41:24;-4.50;99.90
11320;DHT22;5715;48.234;14.320;2024-01-10T07:44:12;-4.50;99.90
11320;DHT22;5715;48.234;14.320;2024-01-10T07:47:00;-4.40;99.90
11320;DHT22;5715;48.234;14.320;2024-01-10T07:49:48;-4.40;99.90
11320;DHT22;5715;48.234;14.320;2024-01-10T07:52:36;-4.30;99.90
11320;DHT22;5715;48.234;14.320;2024-01-10T07:55:24;-4.20;99.90
11320;DHT22;5715;48.234;14.320;2024-01-10T07:58:12;-4.20;99.90
11320;DHT22;5715;48.234;14.320;2024-01-10T08:00:59;-4.10;99.90
11320;DHT22;5715;48.234;14.320;2024-01-10T08:03:47;-3.90;99.90
11320;DHT22;5715;48.234;14.320;2024-01-10T08:06:35;-3.90;99.90
11320;DHT22;5715;48.234;14.320;2024-01-10T08:09:22;-3.80;99.90
11320;DHT22;5715;48.234;14.320;2024-01-10T08:12:11;-3.80;99.90
11320;DHT22;5715;48.234;14.320;2024-01-10T08:15:02;-3.70;99.90
11320;DHT22;5715;48.234;14.320;2024-01-10T08:17:51;-3.60;99.90
11320;DHT22;5715;48.234;14.320;2024-01-10T08:20:38;-3.50;99.90
11320;DHT22;5715;48.234;14.320;2024-01-10T08:23:26;-3.40;99.90
11320;DHT22;5715;48.234;14.320;2024-01-10T08:26:17;-3.40;99.90
11320;DHT22;5715;48.234;14.320;2024-01-10T08:29:07;-3.30;99.90
11320;DHT22;5715;48.234;14.320;2024-01-10T08:31:55;-3.20;99.90
11320;DHT22;5715;48.234;14.320;2024-01-10T08:34:42;-3.10;99.90
11320;DHT22;5715;48.234;14.320;2024-01-10T08:37:32;-3.10;99.90
11320;DHT22;5715;48.234;14.320;2024-01-10T08:40:20;-3.10;99.90
11320;DHT22;5715;48.234;14.320;2024-01-10T08:43:12;-3.00;99.90
11320;DHT22;5715;48.234;14.320;2024-01-10T08:46:00;-3.00;99.90
11320;DHT22;5715;48.234;14.320;2024-01-10T08:48:47;-2.80;99.90
11320;DHT22;5715;48.234;14.320;2024-01-10T08:51:35;-2.70;99.90
11320;DHT22;5715;48.234;14.320;2024-01-10T08:54:23;-2.70;99.90
11320;DHT22;5715;48.234;14.320;2024-01-10T08:57:11;-2.60;99.90
11320;DHT22;5715;48.234;14.320;2024-01-10T08:59:59;-2.40;99.90
11320;DHT22;5715;48.234;14.320;2024-01-10T09:02:47;-2.30;99.90
11320;DHT22;5715;48.234;14.320;2024-01-10T09:05:34;-2.30;99.90
11320;DHT22;5715;48.234;14.320;2024-01-10T09:08:22;-2.20;99.90
11320;DHT22;5715;48.234;14.320;2024-01-10T09:11:10;-2.20;99.90
11320;DHT22;5715;48.234;14.320;2024-01-10T09:13:58;-2.10;99.90
11320;DHT22;5715;48.234;14.320;2024-01-10T09:16:46;-2.00;99.90
11320;DHT22;5715;48.234;14.320;2024-01-10T09:19:34;-1.80;99.90
11320;DHT22;5715;48.234;14.320;2024-01-10T09:22:21;-1.80;99.90
11320;DHT22;5715;48.234;14.320;2024-01-10T09:25:10;-1.80;99.90
11320;DHT22;5715;48.234;14.320;2024-01-10T09:27:59;-1.70;99.90
11320;DHT22;5715;48.234;14.320;2024-01-10T09:30:47;-1.60;99.90
11320;DHT22;5715;48.234;14.320;2024-01-10T09:33:34;-1.70;99.90
11320;DHT22;5715;48.234;14.320;2024-01-10T09:36:23;-1.70;99.90
11320;DHT22;5715;48.234;14.320;2024-01-10T09:39:10;-1.60;99.90
11320;DHT22;5715;48.234;14.320;2024-01-10T09:42:01;-1.70;99.90
11320;DHT22;5715;48.234;14.320;2024-01-10T09:44:51;-1.60;99.90
11320;DHT22;5715;48.234;14.320;2024-01-10T09:47:40;-1.50;99.90
11320;DHT22;5715;48.234;14.320;2024-01-10T09:50:30;-1.50;99.90
11320;DHT22;5715;48.234;14.320;2024-01-10T09:53:27;-1.40;99.90
11320;DHT22;5715;48.234;14.320;2024-01-10T09:56:17;-1.20;99.90
11320;DHT22;5715;48.234;14.320;2024-01-10T09:59:06;-1.30;99.90
11320;DHT22;5715;48.234;14.320;2024-01-10T10:01:58;-1.30;99.90
11320;DHT22;5715;48.234;14.320;2024-01-10T10:05:03;-1.30;99.90
11320;DHT22;5715;48.234;14.320;2024-01-10T10:07:54;-1.30;99.90
11320;DHT22;5715;48.234;14.320;2024-01-10T10:10:43;-1.20;99.90
11320;DHT22;5715;48.234;14.320;2024-01-10T10:13:32;-1.10;99.90
11320;DHT22;5715;48.234;14.320;2024-01-10T10:16:24;-1.10;99.90
11320;DHT22;5715;48.234;14.320;2024-01-10T10:19:23;-1.10;99.90
11320;DHT22;5715;48.234;14.320;2024-01-10T10:22:26;-1.10;99.90
11320;DHT22;5715;48.234;14.320;2024-01-10T10:25:16;-1.00;99.90
11320;DHT22;5715;48.234;14.320;2024-01-10T10:28:04;-0.90;99.90
11320;DHT22;5715;48.234;14.320;2024-01-10T10:30:53;-0.80;99.90
11320;DHT22;5715;48.234;14.320;2024-01-10T10:33:42;-0.70;99.90
11320;DHT22;5715;48.234;14.320;2024-01-10T10:36:30;-0.50;99.90
11320;DHT22;5715;48.234;14.320;2024-01-10T10:39:21;-0.40;99.90
11320;DHT22;5715;48.234;14.320;2024-01-10T10:42:09;-0.40;99.90
11320;DHT22;5715;48.234;14.320;2024-01-10T10:44:59;-0.20;99.90
11320;DHT22;5715;48.234;14.320;2024-01-10T10:47:56;-0.30;99.90
11320;DHT22;5715;48.234;14.320;2024-01-10T10:50:54;-0.20;99.90
11320;DHT22;5715;48.234;14.320;2024-01-10T10:54:04;-0.10;99.90
11320;DHT22;5715;48.234;14.320;2024-01-10T10:56:54;0.00;99.90
11320;DHT22;5715;48.234;14.320;2024-01-10T10:59:45;0.00;99.90
11320;DHT22;5715;48.234;14.320;2024-01-10T11:02:34;0.00;99.90
11320;DHT22;5715;48.234;14.320;2024-01-10T11:05:23;0.10;99.90
11320;DHT22;5715;48.234;14.320;2024-01-10T11:08:15;0.20;99.90
11320;DHT22;5715;48.234;14.320;2024-01-10T11:11:12;0.30;99.90
11320;DHT22;5715;48.234;14.320;2024-01-10T11:20:57;0.30;99.90
11320;DHT22;5715;48.234;14.320;2024-01-10T11:24:00;0.30;99.90
11320;DHT22;5715;48.234;14.320;2024-01-10T11:26:49;0.30;99.90
11320;DHT22;5715;48.234;14.320;2024-01-10T11:29:41;0.40;99.90
11320;DHT22;5715;48.234;14.320;2024-01-10T11:32:29;0.40;99.90
11320;DHT22;5715;48.234;14.320;2024-01-10T11:35:20;0.30;99.90
11320;DHT22;5715;48.234;14.320;2024-01-10T11:38:11;0.40;99.90
11320;DHT22;5715;48.234;14.320;2024-01-10T11:40:59;0.40;99.90
11320;DHT22;5715;48.234;14.320;2024-01-10T11:46:59;0.50;99.90
11320;DHT22;5715;48.234;14.320;2024-01-10T11:49:57;0.50;99.90
11320;DHT22;5715;48.234;14.320;2024-01-10T11:52:45;0.50;99.90
11320;DHT22;5715;48.234;14.320;2024-01-10T11:55:51;0.50;99.90
11320;DHT22;5715;48.234;14.320;2024-01-10T11:58:55;0.50;99.90
11320;DHT22;5715;48.234;14.320;2024-01-10T12:01:48;0.60;99.90
11320;DHT22;5715;48.234;14.320;2024-01-10T12:04:36;0.70;99.90
11320;DHT22;5715;48.234;14.320;2024-01-10T12:07:34;0.70;99.90
11320;DHT22;5715;48.234;14.320;2024-01-10T12:10:21;0.60;99.90
11320;DHT22;5715;48.234;14.320;2024-01-10T12:13:12;0.60;99.90
11320;DHT22;5715;48.234;14.320;2024-01-10T12:16:00;0.70;99.90
11320;DHT22;5715;48.234;14.320;2024-01-10T12:18:47;0.70;99.90
11320;DHT22;5715;48.234;14.320;2024-01-10T12:21:35;0.80;99.90
11320;DHT22;5715;48.234;14.320;2024-01-10T12:24:23;0.80;99.90
11320;DHT22;5715;48.234;14.320;2024-01-10T12:27:11;0.80;99.90
11320;DHT22;5715;48.234;14.320;2024-01-10T12:30:00;0.80;99.90
11320;DHT22;5715;48.234;14.320;2024-01-10T12:32:50;0.80;99.90
11320;DHT22;5715;48.234;14.320;2024-01-10T12:35:38;0.80;99.90
11320;DHT22;5715;48.234;14.320;2024-01-10T12:38:30;0.90;99.90
11320;DHT22;5715;48.234;14.320;2024-01-10T12:41:19;0.90;99.90
11320;DHT22;5715;48.234;14.320;2024-01-10T12:44:07;0.90;99.90
11320;DHT22;5715;48.234;14.320;2024-01-10T12:46:55;1.00;99.90
11320;DHT22;5715;48.234;14.320;2024-01-10T12:49:44;1.00;99.90
11320;DHT22;5715;48.234;14.320;2024-01-10T12:52:32;1.00;99.90
11320;DHT22;5715;48.234;14.320;2024-01-10T12:55:20;1.10;99.90
11320;DHT22;5715;48.234;14.320;2024-01-10T12:58:08;1.20;99.90
11320;DHT22;5715;48.234;14.320;2024-01-10T13:00:57;1.20;99.90
11320;DHT22;5715;48.234;14.320;2024-01-10T13:03:44;1.20;99.90
11320;DHT22;5715;48.234;14.320;2024-01-10T13:06:32;1.20;99.90
11320;DHT22;5715;48.234;14.320;2024-01-10T13:09:20;1.10;99.90
11320;DHT22;5715;48.234;14.320;2024-01-10T13:12:08;1.10;99.90
11320;DHT22;5715;48.234;14.320;2024-01-10T13:14:56;1.00;99.90
11320;DHT22;5715;48.234;14.320;2024-01-10T13:17:48;1.00;99.90
11320;DHT22;5715;48.234;14.320;2024-01-10T13:20:36;1.00;99.90
11320;DHT22;5715;48.234;14.320;2024-01-10T13:23:25;1.10;99.90
11320;DHT22;5715;48.234;14.320;2024-01-10T13:26:16;1.00;99.90
11320;DHT22;5715;48.234;14.320;2024-01-10T13:29:11;1.10;99.90
11320;DHT22;5715;48.234;14.320;2024-01-10T13:32:06;1.10;99.90
11320;DHT22;5715;48.234;14.320;2024-01-10T13:35:02;1.00;99.90
11320;DHT22;5715;48.234;14.320;2024-01-10T13:38:05;1.10;99.90
11320;DHT22;5715;48.234;14.320;2024-01-10T13:41:09;1.10;99.90
11320;DHT22;5715;48.234;14.320;2024-01-10T13:44:02;1.10;99.90
11320;DHT22;5715;48.234;14.320;2024-01-10T13:46:55;1.20;99.90
11320;DHT22;5715;48.234;14.320;2024-01-10T13:49:47;1.20;99.90
11320;DHT22;5715;48.234;14.320;2024-01-10T13:52:42;1.20;99.90
11320;DHT22;5715;48.234;14.320;2024-01-10T13:55:32;1.20;99.90
11320;DHT22;5715;48.234;14.320;2024-01-10T13:58:25;1.20;99.90
11320;DHT22;5715;48.234;14.320;2024-01-10T14:01:12;1.20;99.90
11320;DHT22;5715;48.234;14.320;2024-01-10T14:04:02;1.10;99.90
11320;DHT22;5715;48.234;14.320;2024-01-10T14:06:50;1.20;99.90
11320;DHT22;5715;48.234;14.320;2024-01-10T14:09:38;1.10;99.90
11320;DHT22;5715;48.234;14.320;2024-01-10T14:12:27;1.10;99.90
11320;DHT22;5715;48.234;14.320;2024-01-10T14:15:16;1.10;99.90
11320;DHT22;5715;48.234;14.320;2024-01-10T14:18:04;1.10;99.90
11320;DHT22;5715;48.234;14.320;2024-01-10T14:20:52;1.10;99.90
11320;DHT22;5715;48.234;14.320;2024-01-10T14:23:39;1.00;99.90
11320;DHT22;5715;48.234;14.320;2024-01-10T14:26:27;1.00;99.90
11320;DHT22;5715;48.234;14.320;2024-01-10T14:29:15;1.00;99.90
11320;DHT22;5715;48.234;14.320;2024-01-10T14:32:03;1.00;99.90
11320;DHT22;5715;48.234;14.320;2024-01-10T14:35:04;0.90;99.90
11320;DHT22;5715;48.234;14.320;2024-01-10T14:37:53;0.90;99.90
11320;DHT22;5715;48.234;14.320;2024-01-10T14:40:41;0.80;99.90
11320;DHT22;5715;48.234;14.320;2024-01-10T14:43:28;0.70;99.90
11320;DHT22;5715;48.234;14.320;2024-01-10T14:46:16;0.70;99.90
11320;DHT22;5715;48.234;14.320;2024-01-10T14:49:03;0.60;99.90
11320;DHT22;5715;48.234;14.320;2024-01-10T14:51:51;0.60;99.90
11320;DHT22;5715;48.234;14.320;2024-01-10T14:54:39;0.60;99.90
11320;DHT22;5715;48.234;14.320;2024-01-10T14:57:27;0.50;99.90
11320;DHT22;5715;48.234;14.320;2024-01-10T15:00:15;0.40;99.90
11320;DHT22;5715;48.234;14.320;2024-01-10T15:03:03;0.20;99.90
11320;DHT22;5715;48.234;14.320;2024-01-10T15:06:04;0.10;99.90
11320;DHT22;5715;48.234;14.320;2024-01-10T15:08:53;-0.10;99.90
11320;DHT22;5715;48.234;14.320;2024-01-10T15:11:41;-0.30;99.90
11320;DHT22;5715;48.234;14.320;2024-01-10T15:14:29;-0.40;99.90
11320;DHT22;5715;48.234;14.320;2024-01-10T15:17:16;-0.60;99.90
11320;DHT22;5715;48.234;14.320;2024-01-10T15:20:05;-0.70;99.90
11320;DHT22;5715;48.234;14.320;2024-01-10T15:22:53;-0.90;99.90
11320;DHT22;5715;48.234;14.320;2024-01-10T15:25:41;-1.00;99.90
11320;DHT22;5715;48.234;14.320;2024-01-10T15:28:29;-1.10;99.90
11320;DHT22;5715;48.234;14.320;2024-01-10T15:31:17;-1.20;99.90
11320;DHT22;5715;48.234;14.320;2024-01-10T15:34:06;-1.40;99.90
11320;DHT22;5715;48.234;14.320;2024-01-10T15:36:53;-1.50;99.90
11320;DHT22;5715;48.234;14.320;2024-01-10T15:39:41;-1.60;99.90
11320;DHT22;5715;48.234;14.320;2024-01-10T15:42:29;-1.60;99.90
11320;DHT22;5715;48.234;14.320;2024-01-10T15:45:18;-1.70;99.90
11320;DHT22;5715;48.234;14.320;2024-01-10T15:48:06;-1.70;99.90
11320;DHT22;5715;48.234;14.320;2024-01-10T15:50:56;-1.80;99.90
11320;DHT22;5715;48.234;14.320;2024-01-10T15:53:44;-1.90;99.90
11320;DHT22;5715;48.234;14.320;2024-01-10T15:56:32;-2.00;99.90
11320;DHT22;5715;48.234;14.320;2024-01-10T15:59:21;-2.10;99.90
11320;DHT22;5715;48.234;14.320;2024-01-10T16:02:08;-2.10;99.90
11320;DHT22;5715;48.234;14.320;2024-01-10T16:04:56;-2.20;99.90
11320;DHT22;5715;48.234;14.320;2024-01-10T16:07:45;-2.30;99.90
11320;DHT22;5715;48.234;14.320;2024-01-10T16:10:33;-2.30;99.90
11320;DHT22;5715;48.234;14.320;2024-01-10T16:13:21;-2.40;99.90
11320;DHT22;5715;48.234;14.320;2024-01-10T16:16:09;-2.50;99.90
11320;DHT22;5715;48.234;14.320;2024-01-10T16:18:57;-2.60;99.90
11320;DHT22;5715;48.234;14.320;2024-01-10T16:21:46;-2.60;99.90
11320;DHT22;5715;48.234;14.320;2024-01-10T16:24:33;-2.70;99.90
11320;DHT22;5715;48.234;14.320;2024-01-10T16:27:21;-2.70;99.90
11320;DHT22;5715;48.234;14.320;2024-01-10T16:30:09;-2.70;99.90
11320;DHT22;5715;48.234;14.320;2024-01-10T16:32:57;-2.70;99.90
11320;DHT22;5715;48.234;14.320;2024-01-10T16:35:45;-2.70;99.90
11320;DHT22;5715;48.234;14.320;2024-01-10T16:38:33;-2.80;99.90
11320;DHT22;5715;48.234;14.320;2024-01-10T16:41:21;-2.80;99.90
11320;DHT22;5715;48.234;14.320;2024-01-10T16:44:09;-2.90;99.90
11320;DHT22;5715;48.234;14.320;2024-01-10T16:46:56;-2.90;99.90
11320;DHT22;5715;48.234;14.320;2024-01-10T16:49:45;-2.90;99.90
11320;DHT22;5715;48.234;14.320;2024-01-10T16:52:33;-2.70;99.90
11320;DHT22;5715;48.234;14.320;2024-01-10T16:55:22;-2.50;99.90
11320;DHT22;5715;48.234;14.320;2024-01-10T16:58:10;-2.30;99.90
11320;DHT22;5715;48.234;14.320;2024-01-10T17:00:58;-2.10;99.90
11320;DHT22;5715;48.234;14.320;2024-01-10T17:03:46;-2.00;99.90
11320;DHT22;5715;48.234;14.320;2024-01-10T17:06:34;-1.90;99.90
11320;DHT22;5715;48.234;14.320;2024-01-10T17:09:23;-1.80;99.90
11320;DHT22;5715;48.234;14.320;2024-01-10T17:12:10;-1.70;99.90
11320;DHT22;5715;48.234;14.320;2024-01-10T17:14:58;-1.60;99.90
11320;DHT22;5715;48.234;14.320;2024-01-10T17:17:46;-1.50;99.90
11320;DHT22;5715;48.234;14.320;2024-01-10T17:20:34;-1.50;99.90
11320;DHT22;5715;48.234;14.320;2024-01-10T17:23:21;-1.50;99.90
11320;DHT22;5715;48.234;14.320;2024-01-10T17:26:09;-1.50;99.90
11320;DHT22;5715;48.234;14.320;2024-01-10T17:28:57;-1.60;99.90
11320;DHT22;5715;48.234;14.320;2024-01-10T17:31:45;-1.50;99.90
11320;DHT22;5715;48.234;14.320;2024-01-10T17:34:32;-1.50;99.90
11320;DHT22;5715;48.234;14.320;2024-01-10T17:37:20;-1.50;99.90
11320;DHT22;5715;48.234;14.320;2024-01-10T17:40:08;-1.40;99.90
11320;DHT22;5715;48.234;14.320;2024-01-10T17:42:56;-1.40;99.90
11320;DHT22;5715;48.234;14.320;2024-01-10T17:45:46;-1.40;99.90
11320;DHT22;5715;48.234;14.320;2024-01-10T17:48:34;-1.50;99.90
11320;DHT22;5715;48.234;14.320;2024-01-10T17:51:22;-1.50;99.90
11320;DHT22;5715;48.234;14.320;2024-01-10T17:54:11;-1.50;99.90
11320;DHT22;5715;48.234;14.320;2024-01-10T17:56:59;-1.50;99.90
11320;DHT22;5715;48.234;14.320;2024-01-10T17:59:47;-1.50;99.90
11320;DHT22;5715;48.234;14.320;2024-01-10T18:02:36;-1.40;99.90